PAM4707 KBUF-KORD
Flight info
| Callsign | PAM4707 |
|---|---|
| Flight time | N/A |
| Altitude | 36000 |
| Route | DAVVK FARGN CHAAP Q436 KAYYS WYNDE3 |
| Aircraft | B736/M-SDE2E3FGHIRWXY/LB1 |
Departure
| Time | N/A |
|---|---|
| Airport | Buffalo Niagara International Airport (KBUF) |
Arrival
| Time | 2026-04-30 18:58 |
|---|---|
| Airport | Chicago O'Hare International Airport (KORD) |
| Time | Latitude | Longitude | Altitude | Speed | Heading |
|---|---|---|---|---|---|
| 2026-04-30 17:39 | 42.52974 | -81.33234 | 34068 ft | 425 kts | 277° |
| 2026-04-30 17:41 | 42.56636 | -81.65035 | 35817 ft | 428 kts | 277° |
| 2026-04-30 17:42 | 42.57527 | -81.73040 | 36002 ft | 431 kts | 277° |
| 2026-04-30 17:43 | 42.59722 | -81.92990 | 36014 ft | 428 kts | 277° |
| 2026-04-30 17:44 | 42.62309 | -82.16936 | 36020 ft | 427 kts | 277° |
| 2026-04-30 17:47 | 42.66104 | -82.52952 | 36002 ft | 429 kts | 277° |
| 2026-04-30 17:48 | 42.69017 | -82.80964 | 35983 ft | 427 kts | 277° |
| 2026-04-30 17:50 | 42.72203 | -83.11635 | 36011 ft | 427 kts | 278° |
| 2026-04-30 17:52 | 42.75010 | -83.35570 | 36028 ft | 427 kts | 278° |
| 2026-04-30 17:54 | 42.79074 | -83.71555 | 36045 ft | 427 kts | 278° |
| 2026-04-30 17:56 | 42.82596 | -84.03558 | 36033 ft | 427 kts | 278° |
| 2026-04-30 17:58 | 42.85182 | -84.27551 | 36047 ft | 427 kts | 278° |
| 2026-04-30 18:00 | 42.88032 | -84.59606 | 36055 ft | 426 kts | 266° |
| 2026-04-30 18:01 | 42.85041 | -84.79408 | 36051 ft | 427 kts | 259° |
| 2026-04-30 18:02 | 42.81230 | -85.03039 | 36061 ft | 426 kts | 259° |
| 2026-04-30 18:04 | 42.77412 | -85.26514 | 35197 ft | 413 kts | 259° |
| 2026-04-30 18:05 | 42.74884 | -85.41899 | 31407 ft | 417 kts | 260° |
| 2026-04-30 18:06 | 42.72341 | -85.57223 | 26610 ft | 417 kts | 261° |
| 2026-04-30 18:07 | 42.69786 | -85.72477 | 22085 ft | 405 kts | 261° |
| 2026-04-30 18:08 | 42.67928 | -85.83486 | 19060 ft | 393 kts | 260° |
| 2026-04-30 18:09 | 42.65518 | -85.97677 | 15240 ft | 377 kts | 260° |
| 2026-04-30 18:10 | 42.63190 | -86.11271 | 11762 ft | 361 kts | 260° |
| 2026-04-30 18:11 | 42.60941 | -86.24321 | 9273 ft | 353 kts | 260° |
| 2026-04-30 18:11 | 42.59265 | -86.33989 | 9036 ft | 349 kts | 260° |
| 2026-04-30 18:12 | 42.57591 | -86.43589 | 9039 ft | 348 kts | 260° |
| 2026-04-30 18:13 | 42.56471 | -86.49979 | 9045 ft | 348 kts | 260° |
| 2026-04-30 18:13 | 42.54978 | -86.58464 | 9043 ft | 347 kts | 260° |
| 2026-04-30 18:14 | 42.53677 | -86.65809 | 9035 ft | 328 kts | 260° |
| 2026-04-30 18:15 | 42.52220 | -86.73954 | 9030 ft | 269 kts | 261° |
| 2026-04-30 18:15 | 42.50977 | -86.80956 | 9053 ft | 251 kts | 261° |
| 2026-04-30 18:16 | 42.50155 | -86.85584 | 9056 ft | 254 kts | 261° |
| 2026-04-30 18:16 | 42.49324 | -86.90233 | 9053 ft | 254 kts | 261° |
| 2026-04-30 18:17 | 42.48902 | -86.92585 | 9051 ft | 253 kts | 261° |
| 2026-04-30 18:17 | 42.48487 | -86.94898 | 9048 ft | 253 kts | 261° |
| 2026-04-30 18:17 | 42.47662 | -86.99479 | 9051 ft | 251 kts | 261° |
| 2026-04-30 18:18 | 42.47248 | -87.01778 | 9048 ft | 251 kts | 261° |
| 2026-04-30 18:18 | 42.46834 | -87.04070 | 9050 ft | 251 kts | 261° |
| 2026-04-30 18:18 | 42.46419 | -87.06366 | 9046 ft | 250 kts | 261° |
| 2026-04-30 18:18 | 42.46005 | -87.08649 | 9048 ft | 250 kts | 261° |
| 2026-04-30 18:19 | 42.45587 | -87.10936 | 9047 ft | 250 kts | 259° |
| 2026-04-30 18:19 | 42.45042 | -87.13185 | 9045 ft | 252 kts | 255° |
| 2026-04-30 18:19 | 42.44422 | -87.15408 | 9047 ft | 253 kts | 254° |
| 2026-04-30 18:19 | 42.43794 | -87.17628 | 9049 ft | 253 kts | 254° |
| 2026-04-30 18:20 | 42.43170 | -87.19848 | 9045 ft | 253 kts | 254° |
| 2026-04-30 18:20 | 42.42548 | -87.22080 | 9048 ft | 253 kts | 254° |
| 2026-04-30 18:20 | 42.41933 | -87.24302 | 9044 ft | 253 kts | 254° |
| 2026-04-30 18:20 | 42.41316 | -87.26536 | 9043 ft | 253 kts | 254° |
| 2026-04-30 18:21 | 42.40700 | -87.28768 | 9043 ft | 253 kts | 254° |
| 2026-04-30 18:21 | 42.40085 | -87.30998 | 9046 ft | 253 kts | 254° |
| 2026-04-30 18:21 | 42.39482 | -87.33183 | 9047 ft | 253 kts | 253° |
| 2026-04-30 18:21 | 42.38856 | -87.35443 | 9046 ft | 253 kts | 253° |
| 2026-04-30 18:22 | 42.38239 | -87.37677 | 9046 ft | 254 kts | 253° |
| 2026-04-30 18:22 | 42.35933 | -87.41283 | 9047 ft | 272 kts | 212° |
| 2026-04-30 18:22 | 42.34105 | -87.42028 | 8957 ft | 280 kts | 193° |
| 2026-04-30 18:23 | 42.32139 | -87.41865 | 8660 ft | 289 kts | 171° |
| 2026-04-30 18:23 | 42.30296 | -87.40714 | 8299 ft | 299 kts | 146° |
| 2026-04-30 18:23 | 42.28761 | -87.38813 | 8022 ft | 298 kts | 138° |
| 2026-04-30 18:23 | 42.27317 | -87.36820 | 7735 ft | 296 kts | 137° |
| 2026-04-30 18:24 | 42.24484 | -87.32845 | 7187 ft | 291 kts | 137° |
| 2026-04-30 18:24 | 42.23081 | -87.30891 | 6920 ft | 289 kts | 137° |
| 2026-04-30 18:24 | 42.21686 | -87.28960 | 6658 ft | 286 kts | 137° |
| 2026-04-30 18:25 | 42.20303 | -87.27054 | 6399 ft | 283 kts | 137° |
| 2026-04-30 18:25 | 42.17554 | -87.23278 | 5800 ft | 280 kts | 137° |
| 2026-04-30 18:25 | 42.16194 | -87.21415 | 5523 ft | 278 kts | 137° |
| 2026-04-30 18:26 | 42.13496 | -87.17723 | 5083 ft | 275 kts | 136° |
| 2026-04-30 18:26 | 42.12147 | -87.15880 | 5051 ft | 276 kts | 136° |
| 2026-04-30 18:26 | 42.10785 | -87.14019 | 5040 ft | 275 kts | 136° |
| 2026-04-30 18:27 | 42.08115 | -87.10373 | 5040 ft | 276 kts | 136° |
| 2026-04-30 18:27 | 42.06767 | -87.08534 | 5037 ft | 276 kts | 136° |
| 2026-04-30 18:28 | 42.04042 | -87.04889 | 5033 ft | 275 kts | 144° |
| 2026-04-30 18:28 | 42.02290 | -87.03976 | 5046 ft | 266 kts | 180° |
| 2026-04-30 18:28 | 41.99710 | -87.05646 | 5043 ft | 252 kts | 239° |
| 2026-04-30 18:29 | 41.99256 | -87.07860 | 5044 ft | 249 kts | 274° |
| 2026-04-30 18:29 | 42.00515 | -87.14642 | 5021 ft | 251 kts | 275° |
| 2026-04-30 18:30 | 42.00071 | -87.19264 | 5036 ft | 252 kts | 251° |
| 2026-04-30 18:30 | 41.98212 | -87.23247 | 5029 ft | 255 kts | 227° |
| 2026-04-30 18:31 | 41.96845 | -87.24772 | 5033 ft | 257 kts | 217° |
| 2026-04-30 18:31 | 41.95283 | -87.28684 | 5032 ft | 250 kts | 279° |
| 2026-04-30 18:32 | 41.97652 | -87.31775 | 5045 ft | 262 kts | 349° |
| 2026-04-30 18:32 | 41.99449 | -87.31374 | 5043 ft | 270 kts | 25° |
| 2026-04-30 18:32 | 42.02856 | -87.29503 | 5047 ft | 266 kts | 9° |
| 2026-04-30 18:33 | 42.04627 | -87.28732 | 5054 ft | 269 kts | 16° |
| 2026-04-30 18:33 | 42.08187 | -87.27124 | 5033 ft | 271 kts | 15° |
| 2026-04-30 18:33 | 42.09979 | -87.26342 | 5024 ft | 271 kts | 15° |
| 2026-04-30 18:34 | 42.11767 | -87.25567 | 5032 ft | 270 kts | 15° |
| 2026-04-30 18:34 | 42.15347 | -87.24027 | 5027 ft | 269 kts | 15° |
| 2026-04-30 18:34 | 42.17131 | -87.23261 | 5032 ft | 269 kts | 14° |
| 2026-04-30 18:35 | 42.18910 | -87.22498 | 5031 ft | 268 kts | 14° |
| 2026-04-30 18:35 | 42.20690 | -87.21734 | 5034 ft | 268 kts | 15° |
| 2026-04-30 18:35 | 42.22467 | -87.20972 | 5037 ft | 268 kts | 15° |
| 2026-04-30 18:36 | 42.26018 | -87.20605 | 5048 ft | 256 kts | 330° |
| 2026-04-30 18:36 | 42.27526 | -87.21850 | 5057 ft | 255 kts | 325° |
| 2026-04-30 18:36 | 42.30531 | -87.24421 | 5038 ft | 256 kts | 326° |
| 2026-04-30 18:37 | 42.32041 | -87.25688 | 5036 ft | 256 kts | 326° |
| 2026-04-30 18:37 | 42.33558 | -87.26952 | 5051 ft | 257 kts | 326° |
| 2026-04-30 18:37 | 42.35084 | -87.28220 | 5035 ft | 257 kts | 326° |
| 2026-04-30 18:37 | 42.36401 | -87.29803 | 5044 ft | 253 kts | 306° |
| 2026-04-30 18:38 | 42.37309 | -87.31828 | 5039 ft | 252 kts | 293° |
| 2026-04-30 18:38 | 42.37853 | -87.34082 | 5054 ft | 252 kts | 282° |
| 2026-04-30 18:38 | 42.38088 | -87.36422 | 5036 ft | 252 kts | 271° |
| 2026-04-30 18:38 | 42.37855 | -87.38761 | 5041 ft | 252 kts | 253° |
| 2026-04-30 18:39 | 42.37274 | -87.41000 | 5034 ft | 253 kts | 250° |
| 2026-04-30 18:39 | 42.36597 | -87.43196 | 5035 ft | 253 kts | 246° |
| 2026-04-30 18:39 | 42.35820 | -87.45338 | 5040 ft | 253 kts | 244° |
| 2026-04-30 18:39 | 42.35025 | -87.47461 | 5029 ft | 254 kts | 244° |
| 2026-04-30 18:40 | 42.34226 | -87.49592 | 5037 ft | 254 kts | 244° |
| 2026-04-30 18:40 | 42.33431 | -87.51721 | 5029 ft | 254 kts | 244° |
| 2026-04-30 18:40 | 42.32637 | -87.53856 | 5030 ft | 253 kts | 244° |
| 2026-04-30 18:40 | 42.31849 | -87.55981 | 5028 ft | 253 kts | 244° |
| 2026-04-30 18:41 | 42.31061 | -87.58109 | 5040 ft | 253 kts | 245° |
| 2026-04-30 18:41 | 42.30277 | -87.60232 | 5032 ft | 253 kts | 245° |
| 2026-04-30 18:41 | 42.29496 | -87.62349 | 5024 ft | 252 kts | 245° |
| 2026-04-30 18:41 | 42.28711 | -87.64477 | 5025 ft | 252 kts | 245° |
| 2026-04-30 18:42 | 42.27931 | -87.66593 | 5029 ft | 252 kts | 245° |
| 2026-04-30 18:42 | 42.26365 | -87.70836 | 5032 ft | 253 kts | 245° |
| 2026-04-30 18:42 | 42.25578 | -87.72968 | 5022 ft | 253 kts | 245° |
| 2026-04-30 18:45 | 42.17804 | -87.93952 | 5023 ft | 251 kts | 245° |
| 2026-04-30 18:45 | 42.17021 | -87.96058 | 5018 ft | 251 kts | 245° |
| 2026-04-30 18:45 | 42.16239 | -87.98157 | 5014 ft | 251 kts | 245° |
| 2026-04-30 18:46 | 42.15457 | -88.00258 | 5017 ft | 250 kts | 245° |
| 2026-04-30 18:46 | 42.14676 | -88.02353 | 5021 ft | 250 kts | 245° |
| 2026-04-30 18:46 | 42.13893 | -88.04451 | 5009 ft | 251 kts | 245° |
| 2026-04-30 18:46 | 42.13111 | -88.06546 | 5018 ft | 251 kts | 245° |
| 2026-04-30 18:47 | 42.12325 | -88.08643 | 5017 ft | 252 kts | 244° |
| 2026-04-30 18:47 | 42.11540 | -88.10747 | 5020 ft | 251 kts | 244° |
| 2026-04-30 18:47 | 42.10757 | -88.12843 | 5018 ft | 251 kts | 244° |
| 2026-04-30 18:47 | 42.09973 | -88.14942 | 5009 ft | 251 kts | 244° |
| 2026-04-30 18:48 | 42.09187 | -88.17038 | 4966 ft | 250 kts | 244° |
| 2026-04-30 18:48 | 42.08411 | -88.19107 | 4772 ft | 246 kts | 244° |
| 2026-04-30 18:48 | 42.07633 | -88.21181 | 4339 ft | 251 kts | 244° |
| 2026-04-30 18:48 | 42.06840 | -88.23293 | 4005 ft | 252 kts | 244° |
| 2026-04-30 18:49 | 42.06052 | -88.25393 | 3721 ft | 251 kts | 244° |
| 2026-04-30 18:49 | 42.05258 | -88.27503 | 3361 ft | 254 kts | 244° |
| 2026-04-30 18:49 | 42.04465 | -88.29608 | 3137 ft | 249 kts | 244° |
| 2026-04-30 18:49 | 42.03697 | -88.31650 | 3026 ft | 240 kts | 244° |
| 2026-04-30 18:50 | 42.02960 | -88.33611 | 3002 ft | 231 kts | 243° |
| 2026-04-30 18:50 | 42.02242 | -88.35499 | 2963 ft | 221 kts | 244° |
| 2026-04-30 18:50 | 42.01566 | -88.37289 | 2977 ft | 209 kts | 244° |
| 2026-04-30 18:50 | 42.00924 | -88.38978 | 3003 ft | 200 kts | 243° |
| 2026-04-30 18:51 | 42.00161 | -88.40524 | 2982 ft | 199 kts | 220° |
| 2026-04-30 18:51 | 41.98890 | -88.41190 | 2995 ft | 202 kts | 185° |
| 2026-04-30 18:51 | 41.97518 | -88.40732 | 2991 ft | 211 kts | 151° |
| 2026-04-30 18:51 | 41.96556 | -88.39268 | 2896 ft | 213 kts | 113° |
| 2026-04-30 18:52 | 41.96339 | -88.37328 | 2596 ft | 210 kts | 91° |
| 2026-04-30 18:52 | 41.96356 | -88.35365 | 2306 ft | 209 kts | 89° |
| 2026-04-30 18:52 | 41.96385 | -88.33415 | 2242 ft | 210 kts | 89° |
| 2026-04-30 18:52 | 41.96409 | -88.31459 | 2184 ft | 209 kts | 90° |
| 2026-04-30 18:53 | 41.96432 | -88.29492 | 2201 ft | 213 kts | 90° |
| 2026-04-30 18:53 | 41.96451 | -88.27492 | 2206 ft | 214 kts | 90° |
| 2026-04-30 18:53 | 41.96462 | -88.25493 | 2191 ft | 213 kts | 90° |
| 2026-04-30 18:53 | 41.96472 | -88.23509 | 2195 ft | 212 kts | 89° |
| 2026-04-30 18:54 | 41.96483 | -88.21532 | 2192 ft | 212 kts | 90° |
| 2026-04-30 18:54 | 41.96493 | -88.19540 | 2193 ft | 212 kts | 90° |
| 2026-04-30 18:54 | 41.96500 | -88.17564 | 2186 ft | 211 kts | 90° |
| 2026-04-30 18:54 | 41.96508 | -88.15589 | 2179 ft | 212 kts | 89° |
| 2026-04-30 18:55 | 41.96515 | -88.13624 | 2174 ft | 209 kts | 90° |
| 2026-04-30 18:55 | 41.96530 | -88.09865 | 2191 ft | 196 kts | 90° |
| 2026-04-30 18:55 | 41.96537 | -88.08042 | 2185 ft | 194 kts | 90° |
| 2026-04-30 18:56 | 41.96546 | -88.04445 | 2192 ft | 191 kts | 90° |
| 2026-04-30 18:56 | 41.96551 | -88.02659 | 2206 ft | 191 kts | 90° |
| 2026-04-30 18:56 | 41.96556 | -88.00834 | 1949 ft | 195 kts | 90° |
| 2026-04-30 18:57 | 41.96563 | -87.97449 | 1475 ft | 169 kts | 89° |
| 2026-04-30 18:57 | 41.96567 | -87.96243 | 1329 ft | 155 kts | 89° |
| 2026-04-30 18:57 | 41.96572 | -87.94883 | 1348 ft | 140 kts | 90° |
| 2026-04-30 18:58 | 41.96574 | -87.92170 | 688 ft | 132 kts | 90° |
| 2026-04-30 18:58 | 41.96577 | -87.91094 | 669 ft | 95 kts | 90° |
| 2026-04-30 18:58 | 41.96600 | -87.90579 | 666 ft | 28 kts | 76° |
| 2026-04-30 18:59 | 41.96649 | -87.90412 | 666 ft | 1 kts | 61° |
| 2026-04-30 19:00 | 41.96665 | -87.90375 | 668 ft | 5 kts | 59° |
| 2026-04-30 19:00 | 41.96683 | -87.90334 | 668 ft | 5 kts | 59° |
| 2026-04-30 19:00 | 41.96728 | -87.90218 | 669 ft | 12 kts | 64° |
| 2026-04-30 19:01 | 41.96906 | -87.90124 | 669 ft | 13 kts | 27° |
| 2026-04-30 19:01 | 41.96926 | -87.90044 | 669 ft | 15 kts | 90° |
| 2026-04-30 19:02 | 41.96959 | -87.89936 | 668 ft | 6 kts | 334° |
| 2026-04-30 19:02 | 41.97008 | -87.90045 | 669 ft | 8 kts | 300° |
| 2026-04-30 19:03 | 41.97077 | -87.90131 | 669 ft | 7 kts | 353° |
| 2026-04-30 19:03 | 41.97154 | -87.90131 | 669 ft | 0 kts | 358° |
| 2026-04-30 19:05 | 41.97160 | -87.90132 | 669 ft | 3 kts | 358° |
| 2026-04-30 19:05 | 41.97208 | -87.90015 | 669 ft | 12 kts | 88° |
| 2026-04-30 19:06 | 41.97270 | -87.89744 | 669 ft | 16 kts | 58° |
| 2026-04-30 19:06 | 41.97300 | -87.89634 | 670 ft | 12 kts | 104° |
| 2026-04-30 19:06 | 41.97324 | -87.89447 | 669 ft | 11 kts | 31° |
| 2026-04-30 19:07 | 41.97470 | -87.89400 | 668 ft | 11 kts | 51° |
| 2026-04-30 19:07 | 41.97481 | -87.89337 | 670 ft | 7 kts | 67° |
| 2026-04-30 19:08 | 41.97510 | -87.89229 | 670 ft | 6 kts | 92° |
| 2026-04-30 19:08 | 41.97509 | -87.89197 | 670 ft | 0 kts | 91° |
| 2026-04-30 19:11 | 41.97353 | -87.89152 | 668 ft | 0 kts | 36° |
| 2026-04-30 19:12 | 41.97509 | -87.89211 | 670 ft | 0 kts | 91° |